Jpo Aquarius — CQHE — position and weather

sailwx.info

Track history (hours):
 
Tides and Currents Weather Stations Pressure Air Temp Water Temp Dewpoint Dewpoint Depression Visibility Wind Speed Wind Dir Waves Ship Positions

Jpo Aquarius

Last reported at 2018-Apr-23 15:00 UTC. Time now 2018-Apr-23 15:21 UTC.
Position N 25°44' W 079°34'.

Length 207 m; draft 9.4 m.

Type: Ship. MMSI: 255805580.

Date/timePositionNaut miles runAvg speedWind from/ knotsBaromVisibWave heightAir tempDewpointWater temp
2018-Apr-23 15:00N 25°44' W 079°34'1 1.8
2018-Apr-23 14:30N 25°43' W 079°34'4 8.7
2018-Apr-23 14:00N 25°46' W 079°37'612.2
2018-Apr-23 13:30N 25°51' W 079°41'612.0
2018-Apr-23 13:00N 25°55' W 079°46'612.0
2018-Apr-23 12:30N 25°58' W 079°52'612.2
2018-Apr-23 12:00N 26°01' W 079°58'612.7
2018-Apr-23 11:31N 26°04' W 080°04'3 5.8
2018-Apr-23 11:00N 26°05' W 080°07'1 1.8
2018-Apr-23 10:30N 26°04' W 080°07'0 0.0
2018-Apr-23 10:00N 26°04' W 080°07'0 0.0
2018-Apr-23 09:30N 26°04' W 080°07'0 0.0
2018-Apr-23 09:00N 26°04' W 080°07'0 0.0
2018-Apr-23 08:30N 26°04' W 080°07'0 0.0
2018-Apr-23 08:00N 26°04' W 080°07'0 0.0
2018-Apr-23 07:30N 26°04' W 080°07'0 0.0
2018-Apr-23 07:00N 26°04' W 080°07'0 0.0
2018-Apr-23 06:30N 26°04' W 080°07'0 0.0
2018-Apr-23 06:00N 26°04' W 080°07'0 0.0
2018-Apr-23 05:30N 26°04' W 080°07'0 0.0
2018-Apr-23 05:00N 26°04' W 080°07'0 0.0
2018-Apr-23 04:30N 26°04' W 080°07'0 0.0
2018-Apr-23 04:00N 26°04' W 080°07'0 0.0
2018-Apr-23 03:30N 26°04' W 080°07'0 0.0
2018-Apr-23 03:00N 26°04' W 080°07'0 0.0
2018-Apr-23 02:30N 26°04' W 080°07'0 0.0
2018-Apr-23 02:00N 26°04' W 080°07'0 0.0
2018-Apr-23 01:30N 26°04' W 080°07'0 0.0
2018-Apr-23 01:00N 26°04' W 080°07'0 0.0
2018-Apr-23 00:30N 26°04' W 080°07'0 0.0
2018-Apr-22 23:59N 26°04' W 080°07'0 0.0
2018-Apr-22 23:29N 26°04' W 080°07'0 0.0
2018-Apr-22 23:00N 26°04' W 080°07'0 0.0
2018-Apr-22 22:29N 26°04' W 080°07'0 0.0
2018-Apr-22 21:59N 26°04' W 080°07'0 0.0
2018-Apr-22 21:29N 26°04' W 080°07'0 0.0
2018-Apr-22 20:59N 26°04' W 080°07'0 0.0
2018-Apr-22 20:29N 26°04' W 080°07'0 0.0
2018-Apr-22 19:59N 26°04' W 080°07'1 1.9
2018-Apr-22 19:30N 26°05' W 080°07'3 6.1
2018-Apr-22 19:01N 26°06' W 080°03'3 6.8
2018-Apr-22 18:31N 26°05' W 079°60'714.2
2018-Apr-22 18:00N 26°02' W 079°52'815.6
2018-Apr-22 17:30N 25°60' W 079°44'611.4
2018-Apr-22 17:00N 26°01' W 079°38'612.4
2018-Apr-22 16:30N 26°06' W 079°34'713.2
2018-Apr-22 16:00N 26°11' W 079°30'612.8
2018-Apr-22 15:30N 26°16' W 079°24'  
2018-Apr-19 13:02N 26°32' W 078°46'0 0.1
2018-Apr-19 12:59N 26°32' W 078°46'0 0.0
2018-Apr-19 12:21N 26°32' W 078°46'0 0.0
2018-Apr-19 10:56N 26°32' W 078°46'0 0.0
2018-Apr-19 08:02N 26°32' W 078°46'0 0.0
2018-Apr-19 08:00N 26°32' W 078°46'3 0.4
2018-Apr-19 01:05N 26°29' W 078°48'0 3.4
2018-Apr-19 01:00N 26°29' W 078°48'13 1.7
2018-Apr-18 17:20N 26°17' W 078°43'0 0.1
2018-Apr-18 16:51N 26°17' W 078°42'0 0.1
2018-Apr-18 16:30N 26°17' W 078°42'0 0.1
2018-Apr-18 16:00N 26°17' W 078°42'0 0.2
2018-Apr-18 15:19N 26°17' W 078°42'0 0.2
2018-Apr-18 14:55N 26°16' W 078°42'0 0.1
2018-Apr-18 14:30N 26°16' W 078°42'0 0.1
2018-Apr-18 14:00N 26°16' W 078°42'0 0.1
2018-Apr-18 13:30N 26°16' W 078°42'0 0.1
2018-Apr-18 13:00N 26°16' W 078°42'0 0.2
2018-Apr-18 12:30N 26°16' W 078°42'0 0.1
2018-Apr-18 12:00N 26°16' W 078°42'0 0.1
2018-Apr-18 11:30N 26°16' W 078°42'0 0.1
2018-Apr-18 11:00N 26°16' W 078°42'0 0.1
2018-Apr-18 10:30N 26°16' W 078°42'0 0.1
2018-Apr-18 10:00N 26°16' W 078°42'0 0.1
2018-Apr-18 09:28N 26°16' W 078°42'0 0.1
2018-Apr-18 09:00N 26°16' W 078°42'0 0.1
2018-Apr-18 08:30N 26°16' W 078°42'0 0.1
2018-Apr-18 08:00N 26°16' W 078°42'0 0.1
2018-Apr-18 07:30N 26°16' W 078°42'0 0.0
2018-Apr-18 06:57N 26°16' W 078°42'0 0.0
2018-Apr-18 06:30N 26°16' W 078°42'0 0.1
2018-Apr-18 06:00N 26°16' W 078°42'0 0.3
2018-Apr-18 05:30N 26°16' W 078°42'0 0.5
2018-Apr-18 05:00N 26°16' W 078°42'1 1.1
2018-Apr-18 04:28N 26°15' W 078°43'3 5.7
2018-Apr-18 03:58N 26°14' W 078°40'  
Track history (hours):
 
Tides and Currents Weather Stations Pressure Air Temp Water Temp Dewpoint Dewpoint Depression Visibility Wind Speed Wind Dir Waves Ship Positions

Jpo Aquarius

Last reported at 2018-Apr-23 15:00 UTC. Time now 2018-Apr-23 15:21 UTC.
Position N 25°44' W 079°34'.

Length 207 m; draft 9.4 m.

Type: Ship. MMSI: 255805580.

Date/timePositionNaut miles runAvg speedWind from/ knotsBaromVisibWave heightAir tempDewpointWater temp
2018-Apr-23 15:00N 25°44' W 079°34'1 1.8
2018-Apr-23 14:30N 25°43' W 079°34'4 8.7
2018-Apr-23 14:00N 25°46' W 079°37'612.2
2018-Apr-23 13:30N 25°51' W 079°41'612.0
2018-Apr-23 13:00N 25°55' W 079°46'612.0
2018-Apr-23 12:30N 25°58' W 079°52'612.2
2018-Apr-23 12:00N 26°01' W 079°58'612.7
2018-Apr-23 11:31N 26°04' W 080°04'3 5.8
2018-Apr-23 11:00N 26°05' W 080°07'1 1.8
2018-Apr-23 10:30N 26°04' W 080°07'0 0.0
2018-Apr-23 10:00N 26°04' W 080°07'0 0.0
2018-Apr-23 09:30N 26°04' W 080°07'0 0.0
2018-Apr-23 09:00N 26°04' W 080°07'0 0.0
2018-Apr-23 08:30N 26°04' W 080°07'0 0.0
2018-Apr-23 08:00N 26°04' W 080°07'0 0.0
2018-Apr-23 07:30N 26°04' W 080°07'0 0.0
2018-Apr-23 07:00N 26°04' W 080°07'0 0.0
2018-Apr-23 06:30N 26°04' W 080°07'0 0.0
2018-Apr-23 06:00N 26°04' W 080°07'0 0.0
2018-Apr-23 05:30N 26°04' W 080°07'0 0.0
2018-Apr-23 05:00N 26°04' W 080°07'0 0.0
2018-Apr-23 04:30N 26°04' W 080°07'0 0.0
2018-Apr-23 04:00N 26°04' W 080°07'0 0.0
2018-Apr-23 03:30N 26°04' W 080°07'0 0.0
2018-Apr-23 03:00N 26°04' W 080°07'0 0.0
2018-Apr-23 02:30N 26°04' W 080°07'0 0.0
2018-Apr-23 02:00N 26°04' W 080°07'0 0.0
2018-Apr-23 01:30N 26°04' W 080°07'0 0.0
2018-Apr-23 01:00N 26°04' W 080°07'0 0.0
2018-Apr-23 00:30N 26°04' W 080°07'0 0.0
2018-Apr-22 23:59N 26°04' W 080°07'0 0.0
2018-Apr-22 23:29N 26°04' W 080°07'0 0.0
2018-Apr-22 23:00N 26°04' W 080°07'0 0.0
2018-Apr-22 22:29N 26°04' W 080°07'0 0.0
2018-Apr-22 21:59N 26°04' W 080°07'0 0.0
2018-Apr-22 21:29N 26°04' W 080°07'0 0.0
2018-Apr-22 20:59N 26°04' W 080°07'0 0.0
2018-Apr-22 20:29N 26°04' W 080°07'0 0.0
2018-Apr-22 19:59N 26°04' W 080°07'1 1.9
2018-Apr-22 19:30N 26°05' W 080°07'3 6.1
2018-Apr-22 19:01N 26°06' W 080°03'3 6.8
2018-Apr-22 18:31N 26°05' W 079°60'714.2
2018-Apr-22 18:00N 26°02' W 079°52'815.6
2018-Apr-22 17:30N 25°60' W 079°44'611.4
2018-Apr-22 17:00N 26°01' W 079°38'612.4
2018-Apr-22 16:30N 26°06' W 079°34'713.2
2018-Apr-22 16:00N 26°11' W 079°30'612.8
2018-Apr-22 15:30N 26°16' W 079°24'  
2018-Apr-19 13:02N 26°32' W 078°46'0 0.1
2018-Apr-19 12:59N 26°32' W 078°46'0 0.0
2018-Apr-19 12:21N 26°32' W 078°46'0 0.0
2018-Apr-19 10:56N 26°32' W 078°46'0 0.0
2018-Apr-19 08:02N 26°32' W 078°46'0 0.0
2018-Apr-19 08:00N 26°32' W 078°46'3 0.4
2018-Apr-19 01:05N 26°29' W 078°48'0 3.4
2018-Apr-19 01:00N 26°29' W 078°48'13 1.7
2018-Apr-18 17:20N 26°17' W 078°43'0 0.1
2018-Apr-18 16:51N 26°17' W 078°42'0 0.1
2018-Apr-18 16:30N 26°17' W 078°42'0 0.1
2018-Apr-18 16:00N 26°17' W 078°42'0 0.2
2018-Apr-18 15:19N 26°17' W 078°42'0 0.2
2018-Apr-18 14:55N 26°16' W 078°42'0 0.1
2018-Apr-18 14:30N 26°16' W 078°42'0 0.1
2018-Apr-18 14:00N 26°16' W 078°42'0 0.1
2018-Apr-18 13:30N 26°16' W 078°42'0 0.1
2018-Apr-18 13:00N 26°16' W 078°42'0 0.2
2018-Apr-18 12:30N 26°16' W 078°42'0 0.1
2018-Apr-18 12:00N 26°16' W 078°42'0 0.1
2018-Apr-18 11:30N 26°16' W 078°42'0 0.1
2018-Apr-18 11:00N 26°16' W 078°42'0 0.1
2018-Apr-18 10:30N 26°16' W 078°42'0 0.1
2018-Apr-18 10:00N 26°16' W 078°42'0 0.1
2018-Apr-18 09:28N 26°16' W 078°42'0 0.1
2018-Apr-18 09:00N 26°16' W 078°42'0 0.1
2018-Apr-18 08:30N 26°16' W 078°42'0 0.1
2018-Apr-18 08:00N 26°16' W 078°42'0 0.1
2018-Apr-18 07:30N 26°16' W 078°42'0 0.0
2018-Apr-18 06:57N 26°16' W 078°42'0 0.0
2018-Apr-18 06:30N 26°16' W 078°42'0 0.1
2018-Apr-18 06:00N 26°16' W 078°42'0 0.3
2018-Apr-18 05:30N 26°16' W 078°42'0 0.5
2018-Apr-18 05:00N 26°16' W 078°42'1 1.1
2018-Apr-18 04:28N 26°15' W 078°43'3 5.7
2018-Apr-18 03:58N 26°14' W 078°40'  

Dump ship's entire track history